Time;durP1;ratioP1;P1;durP2;ratioP2;P2;SDS_P1;SDS_P2;PMS_P1;PMS_P2;Temp;Humidity;BMP_temperature;BMP_pressure;BME280_temperature;BME280_humidity;BME280_pressure;Samples;Min_cycle;Max_cycle;Signal;HPM_P1;HPM_P2
2022/05/06 00:01:50;;;;;;;;;16.00;13.00;;;;;17.50;48.46;102097.91;5016821;28;45820;-72
2022/05/06 00:04:24;;;;;;;;;13.00;12.00;;;;;17.20;48.40;102032.72;4999786;28;45489;-71
2022/05/06 00:06:53;;;;;;;;;14.00;13.33;;;;;17.49;48.51;102090.84;4998195;28;45451;-73
2022/05/06 00:09:40;;;;;;;;;15.67;14.00;;;;;17.16;48.69;102036.28;4996662;28;45506;-72
2022/05/06 00:12:12;;;;;;;;;15.00;13.00;;;;;17.45;48.67;102088.22;5008283;28;46254;-71
2022/05/06 00:14:47;;;;;;;;;16.00;13.00;;;;;17.51;48.47;102090.81;4999868;28;45497;-72
2022/05/06 00:17:16;;;;;;;;;14.67;12.33;;;;;17.50;48.64;102092.59;5002775;28;45423;-74
2022/05/06 00:19:46;;;;;;;;;13.00;12.33;;;;;17.35;48.72;102063.56;5012996;28;45571;-72
2022/05/06 00:22:12;;;;;;;;;16.50;15.00;;;;;17.41;48.88;102076.75;5020239;28;45477;-72
2022/05/06 00:24:38;;;;;;;;;15.00;14.33;;;;;17.46;48.74;102087.31;5020154;28;45387;-73
2022/05/06 00:27:04;;;;;;;;;20.33;13.33;;;;;17.46;48.46;102097.91;5029450;28;45482;-73
2022/05/06 00:29:30;;;;;;;;;14.33;14.00;;;;;17.42;48.92;102083.81;4999376;28;45846;-71
2022/05/06 00:31:56;;;;;;;;;16.50;14.50;;;;;17.41;49.02;102092.63;4999242;28;45456;-71
2022/05/06 00:34:22;;;;;;;;;15.00;12.33;;;;;17.44;48.88;102100.59;4998854;28;45476;-73
2022/05/06 00:36:48;;;;;;;;;19.50;14.25;;;;;17.30;48.78;102075.94;5013613;28;45472;-69
2022/05/06 00:39:13;;;;;;;;;15.00;11.67;;;;;17.32;48.78;102083.00;5005734;28;45499;-69
2022/05/06 00:41:39;;;;;;;;;15.00;11.33;;;;;17.38;49.02;102090.88;5017826;28;46377;-70
2022/05/06 00:44:08;;;;;;;;;17.00;13.33;;;;;17.41;48.93;102097.94;5018758;28;45887;-72
2022/05/06 00:46:42;;;;;;;;;16.00;13.33;;;;;17.38;48.89;102097.97;5018759;28;45428;-73
2022/05/06 00:49:12;;;;;;;;;16.33;14.33;;;;;17.39;49.24;102099.69;5034302;28;45488;-72
2022/05/06 00:51:38;;;;;;;;;21.33;14.67;;;;;17.40;49.31;102100.59;5018815;28;46530;-72
2022/05/06 00:54:04;;;;;;;;;19.50;15.50;;;;;16.97;49.24;102039.91;5032419;28;45369;-71
2022/05/06 00:56:30;;;;;;;;;12.67;12.67;;;;;17.36;49.03;102100.59;5018583;28;45495;-73
2022/05/06 00:58:56;;;;;;;;;17.00;17.00;;;;;17.13;49.32;102055.72;5017630;28;45508;-72
2022/05/06 01:01:22;;;;;;;;;19.00;15.75;;;;;17.18;49.22;102076.88;5018125;28;46468;-74
2022/05/06 01:03:48;;;;;;;;;12.33;11.00;;;;;17.23;49.25;102077.72;5016581;28;45628;-73
2022/05/06 01:06:14;;;;;;;;;17.33;16.00;;;;;17.22;49.33;102083.91;5018392;28;45421;-73
2022/05/06 01:08:41;;;;;;;;;19.25;13.25;;;;;17.30;49.24;102098.00;5018576;28;45551;-74
2022/05/06 01:11:13;;;;;;;;;14.75;14.75;;;;;17.29;49.69;102100.66;5018524;28;45627;-72
2022/05/06 01:13:45;;;;;;;;;21.50;20.00;;;;;16.87;49.53;102024.06;5018490;28;45279;-72
2022/05/06 01:16:13;;;;;;;;;17.25;14.50;;;;;17.28;49.40;102091.81;5018356;28;45536;-73
2022/05/06 01:18:39;;;;;;;;;14.50;14.25;;;;;17.26;49.69;102084.78;5017224;28;45448;-72
2022/05/06 01:21:06;;;;;;;;;15.00;13.67;;;;;17.22;49.82;102083.03;5017482;28;45539;-73
2022/05/06 01:23:33;;;;;;;;;19.00;17.00;;;;;16.96;49.44;102036.34;5016784;28;45524;-72
2022/05/06 01:25:59;;;;;;;;;23.67;18.33;;;;;16.90;49.71;102034.63;5018002;28;45437;-74
2022/05/06 01:28:27;;;;;;;;;18.25;16.00;;;;;16.99;49.87;102053.97;5018417;28;45208;-74
2022/05/06 01:31:00;;;;;;;;;24.00;15.75;;;;;16.72;49.88;102006.41;5017764;28;46006;-72
2022/05/06 01:33:28;;;;;;;;;19.00;17.33;;;;;17.09;50.00;102074.25;5017910;28;45579;-74
2022/05/06 01:35:58;;;;;;;;;19.75;15.50;;;;;16.94;49.60;102064.59;5017833;28;45369;-74
2022/05/06 01:38:37;;;;;;;;;19.00;16.75;;;;;16.86;49.89;102037.28;5016632;28;45324;-73
2022/05/06 01:41:05;;;;;;;;;17.67;15.00;;;;;17.15;50.00;102092.75;5017530;28;45437;-72
2022/05/06 01:43:42;;;;;;;;;18.25;17.50;;;;;17.15;49.91;102087.44;5016510;28;45441;-74
2022/05/06 01:46:09;;;;;;;;;18.25;17.00;;;;;16.74;50.11;102022.28;5012868;28;45320;-74
2022/05/06 01:48:35;;;;;;;;;21.50;15.75;;;;;17.11;50.09;102086.59;4998068;28;45317;-73
2022/05/06 01:51:02;;;;;;;;;20.33;18.00;;;;;17.11;50.25;102085.72;4997870;28;46186;-71
2022/05/06 01:53:28;;;;;;;;;16.67;15.00;;;;;17.11;50.30;102089.25;4997693;28;45337;-71
2022/05/06 01:55:54;;;;;;;;;18.75;17.50;;;;;17.08;50.27;102086.59;5005350;28;45322;-74
2022/05/06 01:58:20;;;;;;;;;17.00;16.00;;;;;16.99;50.12;102078.72;5017509;28;45485;-73
2022/05/06 02:00:46;;;;;;;;;15.50;15.50;;;;;17.06;50.14;102091.03;5017542;28;45523;-72
2022/05/06 02:05:16;;;;;;;;;17.50;14.75;;;;;17.03;50.25;102093.66;5017705;28;45354;-73
2022/05/06 02:05:57;;;;;;;;;17.75;16.00;;;;;17.00;50.36;102090.16;5017436;28;45334;-72
2022/05/06 02:08:23;;;;;;;;;19.50;17.00;;;;;17.01;50.41;102097.22;5016944;28;45403;-72
2022/05/06 02:10:49;;;;;;;;;17.00;16.50;;;;;16.89;50.56;102079.59;5017203;28;45531;-73
2022/05/06 02:13:14;;;;;;;;;22.00;20.25;;;;;16.99;50.61;102093.69;5017329;28;45394;-73
2022/05/06 02:15:40;;;;;;;;;19.25;17.00;;;;;16.95;50.55;102092.81;5017217;28;45394;-72
2022/05/06 02:18:09;;;;;;;;;16.50;16.50;;;;;16.75;50.84;102061.06;5033037;28;46032;-68
2022/05/06 02:20:35;;;;;;;;;20.00;15.75;;;;;16.89;50.81;102092.81;5016877;28;46290;-69
2022/05/06 02:23:00;;;;;;;;;16.25;16.25;;;;;16.87;50.92;102094.59;5016999;28;45397;-68
2022/05/06 02:25:26;;;;;;;;;20.75;18.75;;;;;16.75;51.06;102076.94;5017452;28;45315;-70
2022/05/06 02:27:51;;;;;;;;;18.75;12.25;;;;;16.83;51.32;102100.81;5017156;28;45441;-68
2022/05/06 02:33:13;;;;;;;;;21.25;17.25;;;;;16.71;51.13;102085.81;5016408;28;45434;-72
2022/05/06 02:35:40;;;;;;;;;18.50;15.75;;;;;16.79;51.23;102089.31;5016934;28;45481;-71
2022/05/06 02:38:08;;;;;;;;;18.25;16.25;;;;;16.78;51.09;102089.31;5032522;28;45783;-69
2022/05/06 02:40:35;;;;;;;;;19.25;14.25;;;;;16.79;50.90;102089.31;5016728;28;45661;-71
2022/05/06 02:43:02;;;;;;;;;22.75;16.75;;;;;16.76;51.42;102091.94;5016601;28;45501;-71
2022/05/06 02:45:28;;;;;;;;;21.00;17.50;;;;;16.75;51.30;102095.47;5015752;28;45368;-70
2022/05/06 02:47:54;;;;;;;;;19.00;15.00;;;;;16.73;51.52;102094.63;5017414;28;45243;-68
2022/05/06 02:50:19;;;;;;;;;19.50;17.75;;;;;16.67;51.17;102084.03;5016582;28;45656;-69
2022/05/06 02:52:45;;;;;;;;;22.25;17.75;;;;;16.67;51.28;102082.25;5017099;28;45434;-72
2022/05/06 02:55:11;;;;;;;;;19.00;17.00;;;;;16.70;51.50;102091.94;5015371;28;45348;-71
2022/05/06 02:57:37;;;;;;;;;19.75;16.25;;;;;16.58;51.59;102066.41;5016699;28;45508;-73
2022/05/06 03:00:03;;;;;;;;;17.50;15.75;;;;;16.67;51.47;102095.50;5015325;28;45473;-73
2022/05/06 03:02:29;;;;;;;;;18.00;14.50;;;;;16.52;51.76;102075.25;5016582;28;45552;-72
2022/05/06 03:04:55;;;;;;;;;15.75;15.00;;;;;16.64;51.46;102092.84;5015030;28;45463;-73
2022/05/06 03:07:21;;;;;;;;;20.00;16.25;;;;;16.60;51.65;102090.22;5017686;28;45506;-72
2022/05/06 03:09:47;;;;;;;;;19.50;17.25;;;;;16.48;51.94;102076.13;5017894;28;46221;-72
2022/05/06 03:12:16;;;;;;;;;22.50;20.25;;;;;16.52;51.61;102088.47;5016711;28;45401;-70
2022/05/06 03:14:49;;;;;;;;;19.50;18.00;;;;;16.40;51.64;102063.81;5016488;28;45270;-70
2022/05/06 03:17:14;;;;;;;;;22.75;17.50;;;;;16.50;51.82;102079.66;5015496;28;45531;-71
2022/05/06 03:19:44;;;;;;;;;16.50;15.50;;;;;16.43;52.02;102072.59;5015911;28;45395;-73
2022/05/06 03:22:10;;;;;;;;;18.50;17.75;;;;;16.53;51.77;102090.22;5016477;28;45938;-75
2022/05/06 03:24:35;;;;;;;;;24.50;20.25;;;;;16.57;52.09;102088.47;5015998;28;45559;-74
2022/05/06 03:27:01;;;;;;;;;18.50;15.75;;;;;16.59;52.03;102091.13;5016281;28;45591;-71
2022/05/06 03:29:27;;;;;;;;;17.75;16.50;;;;;16.49;51.84;102083.19;5015792;28;45441;-71
2022/05/06 03:31:53;;;;;;;;;18.50;16.75;;;;;16.56;52.07;102105.19;5015693;28;45450;-73
2022/05/06 03:34:20;;;;;;;;;18.75;17.75;;;;;16.51;51.96;102094.66;5016846;28;45334;-73
2022/05/06 03:36:46;;;;;;;;;19.00;16.25;;;;;16.50;51.75;102092.88;5016864;28;45411;-72
2022/05/06 03:39:13;;;;;;;;;20.75;19.50;;;;;16.52;51.87;102096.41;5014902;28;45426;-71
2022/05/06 03:41:39;;;;;;;;;23.00;17.25;;;;;16.52;51.84;102101.69;5016019;28;45413;-73
2022/05/06 03:44:08;;;;;;;;;21.75;17.25;;;;;16.51;51.41;102096.38;5015957;28;45337;-71
2022/05/06 03:46:34;;;;;;;;;23.75;18.75;;;;;16.53;51.74;102103.44;5017741;28;45276;-70
2022/05/06 03:49:01;;;;;;;;;15.50;12.50;;;;;16.50;51.85;102103.44;5002164;28;45448;-69
2022/05/06 03:51:31;;;;;;;;;17.25;14.00;;;;;16.45;51.54;102094.63;5013434;28;45353;-71
2022/05/06 03:53:58;;;;;;;;;22.00;15.75;;;;;16.44;52.09;102099.91;5015084;28;45524;-71
2022/05/06 03:56:25;;;;;;;;;20.75;19.00;;;;;16.41;51.88;102094.66;5016635;28;45338;-70
2022/05/06 03:58:51;;;;;;;;;14.25;14.25;;;;;16.44;51.98;102106.09;5015965;28;45388;-68
2022/05/06 04:01:19;;;;;;;;;17.50;16.75;;;;;16.42;51.99;102107.88;5016608;28;45449;-68
2022/05/06 04:03:46;;;;;;;;;20.00;18.00;;;;;16.38;51.82;102105.22;5016019;28;45512;-72
2022/05/06 04:06:13;;;;;;;;;18.00;18.00;;;;;16.36;51.89;102099.06;5015402;28;45737;-70
2022/05/06 04:08:41;;;;;;;;;17.25;16.25;;;;;16.40;51.75;102112.28;5015874;28;45527;-71
2022/05/06 04:11:08;;;;;;;;;20.00;16.00;;;;;16.41;52.01;102110.50;5015272;28;45358;-72
2022/05/06 04:13:34;;;;;;;;;20.75;18.50;;;;;16.29;52.12;102098.16;5018504;28;45381;-70
2022/05/06 04:16:01;;;;;;;;;21.00;17.00;;;;;16.37;52.08;102112.25;5019851;28;45366;-72
2022/05/06 04:18:31;;;;;;;;;20.75;19.75;;;;;16.33;51.98;102107.88;5020041;28;46391;-72
2022/05/06 04:23:41;;;;;;;;;25.25;18.00;;;;;16.27;51.94;102099.94;5011677;28;45452;-71
2022/05/06 04:26:11;;;;;;;;;19.00;14.75;;;;;16.33;51.99;102119.31;4999078;28;45464;-71
2022/05/06 04:28:37;;;;;;;;;22.75;20.00;;;;;16.31;52.21;102122.84;4998958;28;46088;-68
2022/05/06 04:31:04;;;;;;;;;22.25;19.50;;;;;16.19;52.27;102099.94;4998997;28;45253;-68
2022/05/06 04:33:30;;;;;;;;;22.50;18.75;;;;;16.23;52.13;102108.72;5000731;28;45512;-70
2022/05/06 04:35:57;;;;;;;;;18.75;18.75;;;;;16.24;52.19;102116.66;5014032;28;45417;-70
2022/05/06 04:38:24;;;;;;;;;16.25;15.75;;;;;16.11;52.23;102107.88;5030925;28;46393;-69
2022/05/06 04:40:50;;;;;;;;;21.25;16.50;;;;;16.16;52.16;102114.91;4999317;28;45378;-69
2022/05/06 04:43:20;;;;;;;;;8.00;4.25;;;;;16.16;52.46;102123.72;4998930;28;45872;-69
2022/05/06 04:45:47;;;;;;;;;16.50;15.25;;;;;16.24;51.97;102131.66;5013786;28;45235;-68
2022/05/06 04:48:18;;;;;;;;;18.75;17.50;;;;;16.25;52.56;102134.31;5033919;28;46569;-68
2022/05/06 04:50:47;;;;;;;;;18.75;17.50;;;;;16.01;52.32;102103.44;5016527;28;46520;-68
2022/05/06 04:53:14;;;;;;;;;28.00;21.75;;;;;16.19;52.27;102130.78;5018029;28;45519;-71
2022/05/06 04:55:48;;;;;;;;;27.50;22.75;;;;;16.13;52.45;102128.13;5017657;28;45473;-69
2022/05/06 04:58:15;;;;;;;;;25.00;21.25;;;;;16.19;52.24;102134.28;5018476;28;46312;-69
2022/05/06 05:00:42;;;;;;;;;23.25;21.25;;;;;16.26;52.74;102148.41;5018667;28;45437;-68
2022/05/06 05:03:07;;;;;;;;;24.00;23.75;;;;;16.26;52.52;102151.94;5018316;28;45515;-69
2022/05/06 05:05:33;;;;;;;;;22.00;19.75;;;;;16.16;52.18;102130.75;5018067;28;45278;-68
2022/05/06 05:07:58;;;;;;;;;23.50;17.00;;;;;16.25;52.20;102150.19;5018392;28;45392;-71
2022/05/06 05:10:24;;;;;;;;;26.00;22.00;;;;;16.28;52.50;102149.28;5017108;28;45430;-72
2022/05/06 05:12:50;;;;;;;;;29.75;24.50;;;;;16.19;52.18;102136.94;5017817;28;45382;-71
2022/05/06 05:15:16;;;;;;;;;35.75;23.25;;;;;16.25;52.37;102143.97;5018121;28;45333;-72
2022/05/06 05:17:46;;;;;;;;;27.75;24.25;;;;;16.30;52.34;102152.78;5017752;28;45440;-74
2022/05/06 05:20:13;;;;;;;;;23.75;18.50;;;;;16.31;52.25;102150.16;5023040;28;45390;-73
2022/05/06 05:22:39;;;;;;;;;23.25;17.75;;;;;16.26;52.07;102146.63;5017949;28;45322;-74
2022/05/06 05:25:06;;;;;;;;;25.25;18.50;;;;;16.36;52.13;102146.66;5032953;28;45471;-73
2022/05/06 05:27:32;;;;;;;;;22.75;20.00;;;;;16.37;52.21;102148.41;5017669;28;46278;-72
2022/05/06 05:29:58;;;;;;;;;22.00;21.00;;;;;16.38;52.17;102151.06;5017851;28;45511;-72
2022/05/06 05:32:25;;;;;;;;;22.00;17.50;;;;;16.37;52.27;102141.34;5018261;28;45503;-73
2022/05/06 05:34:51;;;;;;;;;21.50;19.25;;;;;16.29;52.31;102135.19;5018513;28;45346;-71
2022/05/06 05:37:17;;;;;;;;;28.25;23.00;;;;;16.28;52.46;102131.66;5017611;28;45450;-72
2022/05/06 05:39:43;;;;;;;;;25.25;23.50;;;;;16.42;52.23;102151.91;5018469;28;45369;-71
2022/05/06 05:42:09;;;;;;;;;23.75;23.50;;;;;16.47;52.26;102166.94;5018504;28;45454;-71
2022/05/06 05:50:03;;;;;;;;;26.00;22.50;;;;;16.42;51.91;102139.59;5016631;28;45357;-74
2022/05/06 05:52:33;;;;;;;;;22.75;20.00;;;;;16.43;51.91;102132.53;5019927;28;45464;-71
2022/05/06 05:54:59;;;;;;;;;26.50;20.75;;;;;16.64;51.96;102166.06;5034236;28;45435;-72
2022/05/06 05:57:31;;;;;;;;;24.00;21.50;;;;;16.65;51.81;102159.88;5015671;28;46224;-73
2022/05/06 05:59:57;;;;;;;;;26.50;21.75;;;;;16.73;51.93;102166.06;5017604;28;45370;-72
2022/05/06 06:02:23;;;;;;;;;25.00;21.00;;;;;16.77;51.88;102161.63;5017809;28;45764;-72
2022/05/06 06:04:49;;;;;;;;;31.75;23.50;;;;;16.77;51.84;102156.31;5017007;28;45418;-72
2022/05/06 06:07:14;;;;;;;;;26.25;22.75;;;;;16.83;51.57;102167.81;5016391;28;46403;-72
2022/05/06 06:09:40;;;;;;;;;25.25;23.25;;;;;16.86;51.90;102153.72;5017087;28;45343;-72
2022/05/06 06:12:06;;;;;;;;;28.25;24.00;;;;;16.77;51.62;102127.22;5016673;28;45357;-73
2022/05/06 06:14:32;;;;;;;;;27.00;24.50;;;;;16.93;51.75;102155.47;5016147;28;45417;-73
2022/05/06 06:16:57;;;;;;;;;29.25;25.00;;;;;16.87;51.45;102144.88;5016239;28;46105;-74
2022/05/06 06:19:23;;;;;;;;;29.50;23.25;;;;;17.02;51.65;102152.78;4999957;28;45431;-72
2022/05/06 06:21:48;;;;;;;;;30.50;26.50;;;;;16.99;51.33;102136.03;5000493;28;45528;-71
2022/05/06 06:24:14;;;;;;;;;21.00;20.50;;;;;17.01;50.93;102126.31;5012040;28;45477;-72
2022/05/06 06:26:40;;;;;;;;;30.50;25.00;;;;;17.18;51.23;102161.59;5015399;28;46348;-72
2022/05/06 06:29:06;;;;;;;;;28.50;26.50;;;;;17.16;51.00;102156.28;5016725;28;45361;-73
2022/05/06 06:31:32;;;;;;;;;24.50;21.75;;;;;17.29;50.92;102172.13;5017175;28;45337;-72
2022/05/06 06:33:59;;;;;;;;;20.75;20.50;;;;;17.35;51.18;102169.47;5016652;28;45353;-72
2022/05/06 06:36:25;;;;;;;;;25.00;22.25;;;;;17.37;51.09;102163.28;5004513;28;47949;-73
2022/05/06 06:38:51;;;;;;;;;27.75;25.25;;;;;17.40;50.74;102156.22;4996827;28;45331;-72
2022/05/06 06:41:28;;;;;;;;;22.50;22.50;;;;;17.45;50.44;102154.44;4996773;28;45355;-72
2022/05/06 06:43:54;;;;;;;;;28.25;24.25;;;;;17.56;50.66;102174.69;5022512;28;45373;-72
2022/05/06 06:46:20;;;;;;;;;20.50;19.75;;;;;17.62;50.63;102171.13;5014451;28;46851;-71
2022/05/06 06:48:47;;;;;;;;;25.50;23.25;;;;;17.64;50.45;102172.00;5016320;28;45347;-73
2022/05/06 06:51:12;;;;;;;;;28.00;21.50;;;;;17.63;50.55;102164.97;5015956;28;45421;-71
2022/05/06 06:53:38;;;;;;;;;26.75;26.25;;;;;17.67;50.62;102177.28;5016194;28;45488;-72
2022/05/06 06:56:05;;;;;;;;;27.75;24.25;;;;;17.68;50.34;102164.94;5015381;28;45833;-72
2022/05/06 06:58:30;;;;;;;;;33.00;24.25;;;;;17.73;50.08;102166.66;5014593;28;45341;-71
2022/05/06 07:01:03;;;;;;;;;26.75;22.50;;;;;17.83;49.97;102175.50;5009414;28;45717;-70
2022/05/06 07:03:29;;;;;;;;;24.00;21.75;;;;;17.89;49.85;102163.97;5011864;28;45762;-71
2022/05/06 07:14:08;;;;;;;;;22.50;21.50;;;;;18.02;49.17;102163.00;5015479;28;45299;-70
2022/05/06 07:16:35;;;;;;;;;25.75;21.00;;;;;18.17;49.27;102168.19;5014632;28;45743;-73
2022/05/06 07:19:01;;;;;;;;;18.00;17.67;;;;;18.02;48.94;102142.69;5015513;28;45514;-74
2022/05/06 07:21:26;;;;;;;;;26.00;22.00;;;;;18.12;49.02;102145.25;5014796;28;45614;-69
2022/05/06 07:23:52;;;;;;;;;22.00;17.33;;;;;18.34;48.62;102172.50;5011513;28;45592;-73
2022/05/06 07:26:17;;;;;;;;;22.00;20.67;;;;;18.37;48.67;102185.78;5012461;28;46108;-69
2022/05/06 07:28:43;;;;;;;;;25.00;22.50;;;;;18.38;48.75;102179.56;5015090;28;45595;-69
2022/05/06 07:31:08;;;;;;;;;26.25;21.50;;;;;18.42;48.52;102182.19;5015040;28;45454;-72
2022/05/06 07:33:43;;;;;;;;;22.33;20.00;;;;;18.30;48.54;102144.28;5015120;28;45496;-71
2022/05/06 07:36:08;;;;;;;;;24.00;22.33;;;;;18.41;48.12;102153.00;5016702;28;45501;-69
2022/05/06 07:38:34;;;;;;;;;24.33;19.67;;;;;18.58;48.28;102187.34;5016230;28;45398;-70
2022/05/06 07:41:01;;;;;;;;;21.33;16.00;;;;;18.25;48.12;102123.09;5016419;28;45368;-72
2022/05/06 07:43:28;;;;;;;;;17.00;17.00;;;;;18.64;47.99;102174.03;5015888;28;45215;-72
2022/05/06 07:45:55;;;;;;;;;23.00;16.00;;;;;18.68;47.78;102174.91;5015657;28;45431;-74
2022/05/06 07:48:34;;;;;;;;;15.67;15.67;;;;;18.78;47.69;102185.44;5034314;28;45562;-72
2022/05/06 07:51:00;;;;;;;;;19.00;16.33;;;;;18.73;47.55;102173.97;5019164;28;45347;-72
2022/05/06 07:53:26;;;;;;;;;25.50;21.50;;;;;18.70;47.56;102181.97;5019979;28;45502;-72
2022/05/06 07:55:51;;;;;;;;;23.00;21.67;;;;;18.42;47.82;102150.34;5019287;28;45425;-71
2022/05/06 07:58:17;;;;;;;;;20.67;17.33;;;;;18.52;47.83;102166.19;5018009;28;45317;-72
2022/05/06 08:00:42;;;;;;;;;20.00;14.33;;;;;18.62;47.79;102173.16;5018990;28;45563;-73
2022/05/06 08:05:57;;;;;;;;;19.67;17.00;;;;;18.83;48.74;102170.34;5021943;28;45827;-71
2022/05/06 08:08:25;;;;;;;;;21.33;18.00;;;;;18.90;47.83;102171.19;5019601;28;45555;-72
2022/05/06 08:10:51;;;;;;;;;15.00;14.33;;;;;18.94;47.97;102166.72;5019690;28;45444;-74
2022/05/06 08:13:17;;;;;;;;;21.67;19.00;;;;;18.99;47.38;102165.78;5034729;28;45425;-73
2022/05/06 08:15:44;;;;;;;;;23.67;19.67;;;;;18.94;47.54;102164.94;5017827;28;48273;-71
2022/05/06 08:18:10;;;;;;;;;18.00;16.50;;;;;19.11;47.31;102177.19;5034236;28;45294;-72
2022/05/06 08:20:35;;;;;;;;;14.00;14.00;;;;;19.09;47.25;102163.03;5019627;28;45432;-72
2022/05/06 08:23:01;;;;;;;;;17.00;15.67;;;;;19.20;47.02;102163.81;5019838;28;45630;-72
2022/05/06 08:25:27;;;;;;;;;14.00;12.67;;;;;19.02;47.10;102120.59;5018708;28;46089;-71
2022/05/06 08:27:53;;;;;;;;;13.33;13.33;;;;;19.17;46.67;102145.22;5019013;28;45287;-73
2022/05/06 08:30:18;;;;;;;;;18.00;14.67;;;;;19.39;46.42;102164.47;5019135;28;45404;-71
2022/05/06 08:32:45;;;;;;;;;16.67;16.67;;;;;19.44;46.67;102170.59;5019623;28;45560;-72
2022/05/06 08:35:11;;;;;;;;;13.33;12.00;;;;;19.47;46.63;102173.22;5034570;28;47665;-73
2022/05/06 08:37:45;;;;;;;;;19.00;13.67;;;;;19.49;46.48;102174.94;5019922;28;45310;-72
2022/05/06 08:40:34;;;;;;;;;18.00;11.00;;;;;19.49;46.52;102160.78;5022315;28;45334;-72
2022/05/06 08:43:00;;;;;;;;;16.00;13.00;;;;;19.59;46.14;102178.38;5022124;28;45396;-76
2022/05/06 08:50:57;;;;;;;;;11.33;11.00;;;;;19.77;48.10;102174.63;5018627;28;45398;-72
2022/05/06 08:53:28;;;;;;;;;11.67;11.67;;;;;19.86;47.17;102171.88;5018472;28;45436;-72
2022/05/06 08:55:55;;;;;;;;;13.33;12.00;;;;;19.93;46.89;102164.66;5017923;28;46161;-74
2022/05/06 08:58:22;;;;;;;;;13.00;10.00;;;;;19.90;45.84;102138.13;5017566;28;45489;-74
2022/05/06 09:00:48;;;;;;;;;6.33;5.67;;;;;20.08;46.02;102153.81;5018396;28;45413;-72
2022/05/06 09:03:20;;;;;;;;;13.00;11.67;;;;;19.97;45.05;102114.97;5018849;28;45306;-79
2022/05/06 09:05:51;;;;;;;;;11.33;9.00;;;;;19.96;45.06;102139.81;5018170;28;46280;-75
2022/05/06 09:08:18;;;;;;;;;21.00;16.67;;;;;20.11;44.87;102161.72;5018390;28;45584;-74
2022/05/06 09:10:59;;;;;;;;;14.33;13.33;;;;;19.59;45.93;102088.00;5017943;28;45834;-77
2022/05/06 09:13:26;;;;;;;;;14.00;11.33;;;;;20.08;45.30;102151.16;5013465;28;45659;-73
2022/05/06 09:18:37;;;;;;;;;13.67;11.67;;;;;20.07;44.06;102154.72;5001798;28;45433;-74
2022/05/06 09:21:13;;;;;;;;;14.00;10.00;;;;;19.91;45.62;102131.91;4998754;28;45348;-74
2022/05/06 09:23:38;;;;;;;;;9.67;9.33;;;;;20.11;44.33;102156.41;4999018;28;45445;-74
2022/05/06 09:26:15;;;;;;;;;9.67;8.67;;;;;19.98;45.29;102116.72;5012190;28;45426;-76
2022/05/06 09:28:41;;;;;;;;;8.33;7.67;;;;;20.26;45.45;102146.44;5018379;28;45419;-74
2022/05/06 09:31:10;;;;;;;;;11.00;8.33;;;;;20.38;45.34;102142.69;5033506;28;45662;-77
2022/05/06 09:33:40;;;;;;;;;8.00;8.00;;;;;20.46;44.69;102148.78;5020378;28;45486;-77
2022/05/06 09:36:31;;;;;;;;;9.00;8.67;;;;;20.54;44.72;102146.84;5019682;28;46319;-80
2022/05/06 09:39:15;;;;;;;;;14.33;12.00;;;;;20.53;43.32;102145.13;5018936;28;45315;-79
2022/05/06 09:41:41;;;;;;;;;12.67;11.67;;;;;20.34;42.25;102144.53;5019948;28;45372;-74
2022/05/06 09:44:09;;;;;;;;;14.33;11.33;;;;;19.94;42.25;102104.41;5018526;28;45283;-78
2022/05/06 09:46:35;;;;;;;;;13.33;11.00;;;;;19.65;42.49;102079.97;5017561;28;47864;-81
2022/05/06 09:49:03;;;;;;;;;12.33;12.00;;;;;19.95;42.82;102149.56;5019156;28;45853;-75
2022/05/06 09:51:34;;;;;;;;;10.33;9.00;;;;;19.92;42.76;102141.63;5018009;28;45740;-73
2022/05/06 09:54:02;;;;;;;;;10.67;10.33;;;;;19.65;42.87;102106.53;5017903;28;45339;-73
2022/05/06 09:56:28;;;;;;;;;12.33;9.67;;;;;19.49;42.67;102071.31;5017644;28;45634;-74
2022/05/06 09:58:56;;;;;;;;;10.00;7.00;;;;;19.73;42.92;102100.28;5017982;28;45337;-75
2022/05/06 10:01:22;;;;;;;;;8.00;8.00;;;;;19.34;43.02;102017.50;5018452;28;45488;-72
2022/05/06 10:03:51;;;;;;;;;11.67;11.67;;;;;19.95;42.50;102103.47;5017715;28;45772;-73
2022/05/06 10:06:18;;;;;;;;;9.67;9.00;;;;;20.08;42.61;102124.56;5017275;28;45402;-70
2022/05/06 10:08:48;;;;;;;;;9.00;9.00;;;;;20.18;42.37;102119.09;5017382;28;45251;-70
2022/05/06 10:11:19;;;;;;;;;9.67;8.00;;;;;20.37;42.65;102130.31;5015656;28;45461;-69
2022/05/06 10:13:46;;;;;;;;;8.67;8.67;;;;;20.48;42.22;102129.22;5017677;28;45458;-69
2022/05/06 10:16:13;;;;;;;;;8.00;7.33;;;;;20.60;43.62;102137.94;5016942;28;46120;-71
2022/05/06 10:18:40;;;;;;;;;6.67;5.67;;;;;20.74;43.64;102141.22;5015118;28;45591;-69
2022/05/06 10:21:06;;;;;;;;;6.67;6.00;;;;;20.85;42.88;102133.91;5016676;28;45498;-70
2022/05/06 10:23:52;;;;;;;;;6.67;6.67;;;;;20.98;42.40;102131.03;5017019;28;45473;-69
2022/05/06 10:26:48;;;;;;;;;10.67;10.33;;;;;21.05;41.95;102127.34;5015834;28;45516;-72
2022/05/06 10:35:02;;;;;;;;;10.33;10.33;;;;;21.09;40.72;102131.69;5017002;28;45322;-68
2022/05/06 10:37:39;;;;;;;;;17.33;15.33;;;;;20.98;40.08;102110.59;5016479;28;45541;-69
2022/05/06 10:40:25;;;;;;;;;11.00;9.67;;;;;21.14;40.79;102120.03;5032198;28;45407;-70
2022/05/06 10:42:52;;;;;;;;;7.67;7.33;;;;;21.27;41.47;102114.47;5016325;28;45414;-69
2022/05/06 10:45:31;;;;;;;;;8.00;7.00;;;;;21.40;40.37;102121.31;5017326;28;45529;-70
2022/05/06 10:47:58;;;;;;;;;8.00;7.67;;;;;21.47;40.73;102103.41;5017325;28;46302;-72
2022/05/06 10:50:25;;;;;;;;;56.50;42.00;;;;;21.55;41.91;102094.34;5018784;28;45508;-73
2022/05/06 10:52:52;;;;;;;;;28.00;22.33;;;;;21.74;40.14;102110.78;5017068;28;45405;-71
2022/05/06 10:55:21;;;;;;;;;18.00;14.33;;;;;21.82;39.31;102102.59;5017119;28;45280;-70
2022/05/06 10:57:49;;;;;;;;;15.67;13.33;;;;;21.72;38.60;102101.94;5016463;28;45475;-70
2022/05/06 11:00:15;;;;;;;;;12.67;11.33;;;;;21.64;38.62;102095.94;5017158;28;45344;-70
2022/05/06 11:02:41;;;;;;;;;10.33;9.00;;;;;21.70;39.21;102092.22;5012151;28;45508;-71
2022/05/06 11:05:07;;;;;;;;;7.33;7.33;;;;;21.80;39.10;102085.75;4996221;28;45548;-71
2022/05/06 11:07:37;;;;;;;;;10.67;9.00;;;;;21.82;39.05;102083.94;5005540;28;46194;-71
2022/05/06 11:10:10;;;;;;;;;7.00;7.00;;;;;21.47;39.05;101999.44;5015899;28;45361;-72
2022/05/06 11:12:41;;;;;;;;;9.67;9.00;;;;;22.02;37.96;102081.69;5017259;28;45531;-70
2022/05/06 11:15:13;;;;;;;;;13.67;11.67;;;;;21.82;37.69;102054.59;5015768;28;45544;-72
2022/05/06 11:17:39;;;;;;;;;10.67;10.67;;;;;22.12;38.40;102093.00;5017906;28;45408;-72
2022/05/06 11:20:16;;;;;;;;;9.00;8.00;;;;;22.17;38.54;102077.75;5021476;28;45359;-73
2022/05/06 11:23:03;;;;;;;;;14.00;12.67;;;;;22.10;38.01;102061.94;5041509;28;45353;-72
2022/05/06 11:25:31;;;;;;;;;13.67;12.00;;;;;22.11;37.36;102067.22;5028250;28;44943;-71
2022/05/06 11:27:59;;;;;;;;;11.00;11.00;;;;;22.20;37.45;102082.13;5022328;28;45330;-71
2022/05/06 11:30:27;;;;;;;;;11.67;11.00;;;;;22.27;37.03;102073.09;5036608;28;45369;-71
2022/05/06 11:33:00;;;;;;;;;15.33;10.33;;;;;22.30;37.04;102075.66;5023245;28;45515;-68
2022/05/06 11:35:45;;;;;;;;;11.00;9.67;;;;;22.37;36.98;102073.72;5023440;28;45315;-71
2022/05/06 11:38:11;;;;;;;;;8.67;8.67;;;;;22.28;36.68;102031.25;5019800;28;45459;-70
2022/05/06 11:40:37;;;;;;;;;8.67;8.67;;;;;22.56;36.50;102061.63;5021794;28;45254;-72
2022/05/06 11:43:05;;;;;;;;;7.00;7.00;;;;;22.64;36.68;102058.78;5023558;28;45473;-70
2022/05/06 11:48:20;;;;;;;;;10.33;10.33;;;;;22.74;35.67;102051.38;5020345;28;45324;-72
2022/05/06 11:50:50;;;;;;;;;8.67;8.00;;;;;22.86;35.29;102069.72;5023177;28;45270;-71
